Time;durP1;ratioP1;P1;durP2;ratioP2;P2;SDS_P1;SDS_P2;PMS_P1;PMS_P2;Temp;Humidity;BMP_temperature;BMP_pressure;BME280_temperature;BME280_humidity;BME280_pressure;Samples;Min_cycle;Max_cycle;Signal;HPM_P1;HPM_P2
2023/10/22 00:00:15;;;;;;;;;;;;;;;14.46;100.00;99686.22;4994247;28;818;-65
2023/10/22 00:02:41;;;;;;;;;;;;;;;14.46;100.00;99677.09;4994017;28;1959;-65
2023/10/22 00:05:08;;;;;;;;;;;;;;;14.39;100.00;99685.63;4994495;28;835;-65
2023/10/22 00:07:34;;;;;;;;;;;;;;;14.20;100.00;99690.00;4993967;28;866;-68
2023/10/22 00:10:01;;;;;;;;;;;;;;;14.02;100.00;99690.38;4994068;28;804;-67
2023/10/22 00:12:28;;;;;;;;;;;;;;;13.86;100.00;99697.44;4993940;28;839;-68
2023/10/22 00:14:54;;;;;;;;;;;;;;;13.70;100.00;99691.81;4993931;28;835;-68
2023/10/22 00:17:21;;;;;;;;;;;;;;;13.64;100.00;99705.41;4993888;28;827;-68
2023/10/22 00:19:48;;;;;;;;;;;;;;;13.61;100.00;99702.69;4993874;28;803;-68
2023/10/22 00:22:16;;;;;;;;;;;;;;;13.68;100.00;99695.00;4993842;28;1406;-68
2023/10/22 00:24:43;;;;;;;;;;;;;;;13.75;100.00;99702.41;4993756;28;882;-68
2023/10/22 00:27:10;;;;;;;;;;;;;;;13.74;100.00;99697.28;4993700;28;874;-67
2023/10/22 00:29:37;;;;;;;;;;;;;;;13.76;100.00;99697.63;4993915;28;799;-67
2023/10/22 00:32:04;;;;;;;;;;;;;;;13.82;100.00;99693.94;4993642;28;922;-67
2023/10/22 00:34:30;;;;;;;;;;;;;;;13.89;100.00;99701.38;4993542;28;1874;-67
2023/10/22 00:36:57;;;;;;;;;;;;;;;13.93;100.00;99698.50;4993121;28;839;-67
2023/10/22 00:39:23;;;;;;;;;;;;;;;14.06;100.00;99691.88;4993374;28;878;-67
2023/10/22 00:41:50;;;;;;;;;;;;;;;14.30;100.00;99700.88;4993511;28;862;-67
2023/10/22 00:44:17;;;;;;;;;;;;;;;14.48;100.00;99711.59;4993346;28;874;-67
2023/10/22 00:46:45;;;;;;;;;;;;;;;14.47;100.00;99710.06;4993466;28;827;-67
2023/10/22 00:49:12;;;;;;;;;;;;;;;14.47;100.00;99714.84;4993263;28;811;-68
2023/10/22 00:51:39;;;;;;;;;;;;;;;14.36;100.00;99712.28;4993237;28;891;-68
2023/10/22 00:54:06;;;;;;;;;;;;;;;14.25;100.00;99714.50;4993190;28;1882;-67
2023/10/22 00:56:33;;;;;;;;;;;;;;;14.15;100.00;99699.63;4993121;28;807;-67
2023/10/22 00:59:00;;;;;;;;;;;;;;;14.01;100.00;99711.81;4993118;28;885;-67
2023/10/22 01:01:27;;;;;;;;;;;;;;;13.91;100.00;99703.69;4993033;28;843;-67
2023/10/22 01:03:54;;;;;;;;;;;;;;;13.85;100.00;99703.44;4993090;28;839;-67
2023/10/22 01:06:21;;;;;;;;;;;;;;;13.81;100.00;99697.94;4992865;28;837;-66
2023/10/22 01:08:48;;;;;;;;;;;;;;;13.81;100.00;99702.72;4992973;28;855;-67
2023/10/22 01:11:15;;;;;;;;;;;;;;;13.83;100.00;99700.28;4992945;28;875;-67
2023/10/22 01:13:41;;;;;;;;;;;;;;;13.81;100.00;99703.50;4992887;28;1902;-67
2023/10/22 01:16:10;;;;;;;;;;;;;;;13.82;100.00;99701.50;4992672;28;1148;-67
2023/10/22 01:18:36;;;;;;;;;;;;;;;13.80;100.00;99696.34;4992795;28;1028;-67
2023/10/22 01:21:06;;;;;;;;;;;;;;;13.79;100.00;99694.03;4992733;28;946;-67
2023/10/22 01:23:39;;;;;;;;;;;;;;;13.76;100.00;99692.09;4992468;28;1446;-67
2023/10/22 01:26:06;;;;;;;;;;;;;;;13.74;100.00;99698.09;4992820;28;846;-67
2023/10/22 01:28:33;;;;;;;;;;;;;;;13.75;100.00;99699.63;4992652;28;847;-67
2023/10/22 01:31:00;;;;;;;;;;;;;;;13.79;100.00;99696.81;4992815;28;846;-67
2023/10/22 01:33:27;;;;;;;;;;;;;;;13.87;100.00;99703.78;4992484;28;1918;-67
2023/10/22 01:35:53;;;;;;;;;;;;;;;13.90;100.00;99702.91;4992631;28;879;-67
2023/10/22 01:38:20;;;;;;;;;;;;;;;13.93;100.00;99704.06;4992651;28;844;-67
2023/10/22 01:40:45;;;;;;;;;;;;;;;13.92;100.00;99699.72;4992756;28;796;-68
2023/10/22 01:43:12;;;;;;;;;;;;;;;13.88;100.00;99702.56;4992804;28;838;-67
2023/10/22 01:45:38;;;;;;;;;;;;;;;13.84;100.00;99705.41;4992728;28;823;-67
2023/10/22 01:48:05;;;;;;;;;;;;;;;13.84;100.00;99710.97;4991633;28;804;-67
2023/10/22 01:50:32;;;;;;;;;;;;;;;13.83;100.00;99712.19;4992403;28;807;-67
2023/10/22 01:52:59;;;;;;;;;;;;;;;13.84;100.00;99712.97;4992324;28;1953;-65
2023/10/22 01:55:25;;;;;;;;;;;;;;;13.89;100.00;99718.81;4975229;28;1407;-65
2023/10/22 01:57:52;;;;;;;;;;;;;;;13.86;100.00;99722.44;4992390;28;847;-65
2023/10/22 02:00:18;;;;;;;;;;;;;;;13.85;100.00;99714.53;4992286;28;843;-65
2023/10/22 02:02:43;;;;;;;;;;;;;;;13.73;100.00;99709.63;4992426;28;874;-65
2023/10/22 02:05:10;;;;;;;;;;;;;;;13.61;100.00;99709.03;4992187;28;882;-65
2023/10/22 02:07:39;;;;;;;;;;;;;;;13.57;100.00;99707.53;4992338;28;811;-65
2023/10/22 02:10:08;;;;;;;;;;;;;;;13.56;100.00;99714.28;4992253;28;869;-65
2023/10/22 02:12:34;;;;;;;;;;;;;;;13.53;100.00;99710.38;4992161;28;1949;-65
2023/10/22 02:15:01;;;;;;;;;;;;;;;13.51;100.00;99717.56;4992502;28;871;-65
2023/10/22 02:17:28;;;;;;;;;;;;;;;13.47;100.00;99720.41;4992164;28;838;-64
2023/10/22 02:19:55;;;;;;;;;;;;;;;13.41;100.00;99719.31;4974774;28;1576;-65
2023/10/22 02:22:20;;;;;;;;;;;;;;;13.33;100.00;99720.66;4971292;28;1354;-65
2023/10/22 02:24:47;;;;;;;;;;;;;;;13.25;100.00;99715.22;4973040;28;906;-67
2023/10/22 02:27:13;;;;;;;;;;;;;;;13.16;100.00;99717.72;4972577;28;901;-67
2023/10/22 02:29:40;;;;;;;;;;;;;;;13.02;100.00;99712.44;4972832;28;791;-67
2023/10/22 02:32:07;;;;;;;;;;;;;;;12.86;100.00;99711.06;4972692;28;825;-67
2023/10/22 02:34:34;;;;;;;;;;;;;;;12.69;100.00;99709.34;4972583;28;1914;-67
2023/10/22 02:37:01;;;;;;;;;;;;;;;12.57;100.00;99707.19;4972586;28;874;-67
2023/10/22 02:39:28;;;;;;;;;;;;;;;12.53;100.00;99706.44;4972598;28;819;-67
2023/10/22 02:41:54;;;;;;;;;;;;;;;12.40;100.00;99707.00;4972631;28;827;-67
2023/10/22 02:44:21;;;;;;;;;;;;;;;12.38;100.00;99714.19;4972514;28;866;-67
2023/10/22 02:46:48;;;;;;;;;;;;;;;12.37;100.00;99715.38;4972722;28;800;-67
2023/10/22 02:49:14;;;;;;;;;;;;;;;12.41;100.00;99716.88;4972500;28;843;-67
2023/10/22 02:51:41;;;;;;;;;;;;;;;12.45;100.00;99725.16;4972522;28;835;-67
2023/10/22 02:54:08;;;;;;;;;;;;;;;12.41;100.00;99724.41;4972460;28;1949;-67
2023/10/22 02:56:34;;;;;;;;;;;;;;;12.36;100.00;99725.66;4972465;28;811;-67
2023/10/22 02:59:01;;;;;;;;;;;;;;;12.32;100.00;99730.47;4973107;28;823;-67
2023/10/22 03:01:29;;;;;;;;;;;;;;;12.29;100.00;99738.81;4975944;28;803;-66
2023/10/22 03:03:55;;;;;;;;;;;;;;;12.19;100.00;99735.00;4975717;28;870;-67
2023/10/22 03:06:21;;;;;;;;;;;;;;;12.19;100.00;99740.53;4975843;28;851;-67
2023/10/22 03:08:48;;;;;;;;;;;;;;;12.20;100.00;99744.88;4975910;28;882;-67
2023/10/22 03:11:16;;;;;;;;;;;;;;;12.34;100.00;99741.16;4975716;28;856;-67
2023/10/22 03:13:43;;;;;;;;;;;;;;;12.51;100.00;99739.34;4975834;28;1938;-67
2023/10/22 03:16:12;;;;;;;;;;;;;;;12.61;100.00;99741.16;4975598;28;882;-67
2023/10/22 03:18:40;;;;;;;;;;;;;;;12.71;100.00;99745.00;4975704;28;878;-67
2023/10/22 03:21:19;;;;;;;;;;;;;;;12.75;100.00;99737.41;4975576;28;969;-67
2023/10/22 03:23:47;;;;;;;;;;;;;;;12.79;100.00;99741.69;4974074;28;1422;-67
2023/10/22 03:26:17;;;;;;;;;;;;;;;12.76;100.00;99742.53;4975415;28;883;-67
2023/10/22 03:28:45;;;;;;;;;;;;;;;12.83;100.00;99753.53;4975533;28;843;-67
2023/10/22 03:31:13;;;;;;;;;;;;;;;12.74;100.00;99747.72;4975274;28;838;-67
2023/10/22 03:33:39;;;;;;;;;;;;;;;12.74;100.00;99744.94;4975225;28;1999;-67
2023/10/22 03:36:09;;;;;;;;;;;;;;;12.69;100.00;99742.63;4975659;28;815;-67
2023/10/22 03:38:35;;;;;;;;;;;;;;;12.51;100.00;99744.88;4975220;28;839;-67
2023/10/22 03:41:05;;;;;;;;;;;;;;;12.33;100.00;99737.59;4975300;28;857;-67
2023/10/22 03:43:34;;;;;;;;;;;;;;;12.21;100.00;99741.69;4975284;28;856;-67
2023/10/22 03:46:02;;;;;;;;;;;;;;;12.22;100.00;99745.25;4975156;28;899;-67
2023/10/22 03:48:29;;;;;;;;;;;;;;;12.30;100.00;99745.94;4974967;28;899;-67
2023/10/22 03:50:55;;;;;;;;;;;;;;;12.21;100.00;99746.47;4975147;28;854;-67
2023/10/22 03:53:22;;;;;;;;;;;;;;;12.28;100.00;99751.13;4974830;28;1886;-67
2023/10/22 03:55:49;;;;;;;;;;;;;;;12.21;100.00;99743.69;4974968;28;823;-67
2023/10/22 03:58:16;;;;;;;;;;;;;;;12.08;100.00;99750.94;4974814;28;878;-67
2023/10/22 04:00:42;;;;;;;;;;;;;;;12.02;100.00;99748.66;4974863;28;886;-67
2023/10/22 04:03:09;;;;;;;;;;;;;;;12.14;100.00;99738.22;4974717;28;996;-67
2023/10/22 04:05:35;;;;;;;;;;;;;;;12.24;100.00;99745.63;4974756;28;815;-67
2023/10/22 04:08:03;;;;;;;;;;;;;;;12.25;100.00;99753.53;4974821;28;823;-67
2023/10/22 04:10:29;;;;;;;;;;;;;;;12.18;100.00;99752.81;4973986;28;878;-67
2023/10/22 04:12:55;;;;;;;;;;;;;;;12.29;100.00;99753.47;4974512;28;1882;-67
2023/10/22 04:15:21;;;;;;;;;;;;;;;12.37;100.00;99745.84;4974581;28;878;-67
2023/10/22 04:17:48;;;;;;;;;;;;;;;12.32;100.00;99749.88;4974653;28;882;-67
2023/10/22 04:20:15;;;;;;;;;;;;;;;12.40;100.00;99751.34;4974454;28;882;-67
2023/10/22 04:22:42;;;;;;;;;;;;;;;12.38;100.00;99750.97;4982614;28;1214;-67
2023/10/22 04:25:10;;;;;;;;;;;;;;;12.38;100.00;99741.88;4976416;28;1300;-67
2023/10/22 04:27:36;;;;;;;;;;;;;;;12.42;100.00;99748.19;4993809;28;815;-67
2023/10/22 04:30:04;;;;;;;;;;;;;;;12.37;100.00;99749.41;4993648;28;882;-67
2023/10/22 04:32:33;;;;;;;;;;;;;;;12.29;100.00;99752.69;4993474;28;1914;-67
2023/10/22 04:35:00;;;;;;;;;;;;;;;12.29;100.00;99755.44;4993543;28;849;-67
2023/10/22 04:37:27;;;;;;;;;;;;;;;12.32;100.00;99749.09;4993691;28;843;-66
2023/10/22 04:39:56;;;;;;;;;;;;;;;12.33;100.00;99754.22;4993842;28;823;-67
2023/10/22 04:42:23;;;;;;;;;;;;;;;12.33;100.00;99757.00;4993422;28;831;-66
2023/10/22 04:44:50;;;;;;;;;;;;;;;12.46;100.00;99760.78;4993410;28;807;-67
2023/10/22 04:47:17;;;;;;;;;;;;;;;12.56;100.00;99766.59;4993292;28;851;-67
2023/10/22 04:49:44;;;;;;;;;;;;;;;12.63;100.00;99758.16;4993303;28;827;-67
2023/10/22 04:52:17;;;;;;;;;;;;;;;12.70;100.00;99768.41;4993238;28;890;-67
2023/10/22 04:54:44;;;;;;;;;;;;;;;12.81;100.00;99764.25;4975743;28;1953;-67
2023/10/22 04:57:10;;;;;;;;;;;;;;;12.93;100.00;99775.97;4993443;28;816;-67
2023/10/22 04:59:37;;;;;;;;;;;;;;;12.98;100.00;99773.50;4993037;28;851;-67
2023/10/22 05:02:03;;;;;;;;;;;;;;;13.08;100.00;99774.56;4993173;28;883;-67
2023/10/22 05:04:31;;;;;;;;;;;;;;;13.22;100.00;99774.31;4993130;28;803;-67
2023/10/22 05:06:57;;;;;;;;;;;;;;;13.44;100.00;99771.22;4993309;28;867;-67
2023/10/22 05:09:24;;;;;;;;;;;;;;;13.56;100.00;99776.16;4993306;28;866;-67
2023/10/22 05:11:51;;;;;;;;;;;;;;;13.65;100.00;99773.63;4992983;28;894;-67
2023/10/22 05:14:17;;;;;;;;;;;;;;;13.72;100.00;99775.50;4992908;28;1959;-67
2023/10/22 05:16:45;;;;;;;;;;;;;;;13.79;100.00;99780.91;4993058;28;817;-67
2023/10/22 05:19:11;;;;;;;;;;;;;;;13.87;100.00;99778.81;4993057;28;877;-67
2023/10/22 05:21:38;;;;;;;;;;;;;;;13.96;100.00;99786.56;4993210;28;1041;-67
2023/10/22 05:24:04;;;;;;;;;;;;;;;13.99;100.00;99777.38;4992685;28;1302;-67
2023/10/22 05:26:31;;;;;;;;;;;;;;;14.02;100.00;99779.31;4992915;28;795;-67
2023/10/22 05:28:59;;;;;;;;;;;;;;;14.18;100.00;99782.16;4975457;28;1315;-67
2023/10/22 05:31:26;;;;;;;;;;;;;;;14.37;100.00;99785.38;4992824;28;914;-68
2023/10/22 05:33:53;;;;;;;;;;;;;;;14.44;100.00;99797.09;4992700;28;1975;-68
2023/10/22 05:36:21;;;;;;;;;;;;;;;14.47;100.00;99798.25;4975381;28;1268;-68
2023/10/22 05:38:48;;;;;;;;;;;;;;;14.23;100.00;99773.31;4992609;28;792;-68
2023/10/22 05:41:22;;;;;;;;;;;;;;;14.37;100.00;99805.59;4992522;28;840;-68
2023/10/22 05:43:52;;;;;;;;;;;;;;;14.32;100.00;99814.47;4992530;28;886;-68
2023/10/22 05:46:19;;;;;;;;;;;;;;;14.28;100.00;99810.97;4992441;28;851;-68
2023/10/22 05:48:46;;;;;;;;;;;;;;;14.32;100.00;99814.47;4992466;28;898;-67
2023/10/22 05:51:12;;;;;;;;;;;;;;;14.32;100.00;99805.31;4992410;28;859;-67
2023/10/22 05:53:39;;;;;;;;;;;;;;;14.35;100.00;99813.59;4992377;28;1949;-67
2023/10/22 05:56:05;;;;;;;;;;;;;;;14.41;100.00;99836.13;4992350;28;854;-67
2023/10/22 05:58:32;;;;;;;;;;;;;;;14.49;100.00;99826.44;4992451;28;815;-67
2023/10/22 06:00:58;;;;;;;;;;;;;;;14.59;100.00;99833.00;4974752;28;1700;-67
2023/10/22 06:03:25;;;;;;;;;;;;;;;14.69;100.00;99824.44;4992317;28;819;-68
2023/10/22 06:05:52;;;;;;;;;;;;;;;14.87;100.00;99826.03;4992338;28;859;-68
2023/10/22 06:08:18;;;;;;;;;;;;;;;15.07;100.00;99848.28;4974923;28;891;-68
2023/10/22 06:10:48;;;;;;;;;;;;;;;15.24;100.00;99830.38;4992246;28;846;-68
2023/10/22 06:13:15;;;;;;;;;;;;;;;15.41;100.00;99833.94;4992138;28;1951;-68
2023/10/22 06:15:43;;;;;;;;;;;;;;;15.75;100.00;99859.84;4992305;28;842;-68
2023/10/22 06:18:09;;;;;;;;;;;;;;;16.17;100.00;99843.19;4992116;28;855;-68
2023/10/22 06:20:37;;;;;;;;;;;;;;;16.49;100.00;99857.03;4992085;28;1027;-68
2023/10/22 06:23:04;;;;;;;;;;;;;;;16.70;100.00;99855.63;4991869;28;1288;-68
2023/10/22 06:25:34;;;;;;;;;;;;;;;16.91;100.00;99839.50;4992133;28;914;-68
2023/10/22 06:28:03;;;;;;;;;;;;;;;16.99;100.00;99837.28;4992142;28;819;-69
2023/10/22 06:30:29;;;;;;;;;;;;;;;16.99;100.00;99860.41;4991931;28;879;-68
2023/10/22 06:32:56;;;;;;;;;;;;;;;16.88;100.00;99852.34;4992080;28;2357;-68
2023/10/22 06:35:26;;;;;;;;;;;;;;;16.83;100.00;99854.91;4977389;28;851;-68
2023/10/22 06:37:56;;;;;;;;;;;;;;;16.70;100.00;99850.03;4978241;28;1388;-68
2023/10/22 06:40:23;;;;;;;;;;;;;;;16.48;100.00;99805.25;4995972;28;835;-68
2023/10/22 06:42:49;;;;;;;;;;;;;;;16.86;100.00;99840.06;4978425;28;1445;-68
2023/10/22 06:45:17;;;;;;;;;;;;;;;17.21;100.00;99842.97;4995860;28;859;-69
2023/10/22 06:47:44;;;;;;;;;;;;;;;17.60;100.00;99849.31;4995797;28;854;-68
2023/10/22 06:50:11;;;;;;;;;;;;;;;17.84;100.00;99850.53;4995670;28;888;-69
2023/10/22 06:52:38;;;;;;;;;;;;;;;18.21;100.00;99838.88;4995603;28;1886;-69
2023/10/22 06:55:05;;;;;;;;;;;;;;;18.43;100.00;99844.47;4995598;28;873;-69
2023/10/22 06:57:31;;;;;;;;;;;;;;;18.66;100.00;99835.63;4995589;28;796;-70
2023/10/22 06:59:58;;;;;;;;;;;;;;;18.89;100.00;99834.38;4995481;28;852;-69
2023/10/22 07:02:25;;;;;;;;;;;;;;;19.15;100.00;99834.94;4995484;28;826;-69
2023/10/22 07:04:54;;;;;;;;;;;;;;;19.35;100.00;99828.97;4995666;28;1164;-69
2023/10/22 07:07:22;;;;;;;;;;;;;;;19.49;100.00;99827.59;4995259;28;843;-69
2023/10/22 07:09:49;;;;;;;;;;;;;;;19.59;100.00;99834.00;4995425;28;812;-69
2023/10/22 07:12:16;;;;;;;;;;;;;;;19.66;100.00;99836.50;4995265;28;905;-69
2023/10/22 07:14:43;;;;;;;;;;;;;;;19.87;100.00;99834.84;4995024;28;1957;-70
2023/10/22 07:17:09;;;;;;;;;;;;;;;20.18;100.00;99829.09;4995274;28;840;-70
2023/10/22 07:19:36;;;;;;;;;;;;;;;20.39;100.00;99841.38;4995005;28;887;-70
2023/10/22 07:22:03;;;;;;;;;;;;;;;20.56;100.00;99841.06;4994956;28;1231;-70
2023/10/22 07:24:30;;;;;;;;;;;;;;;20.94;100.00;99840.53;4994939;28;808;-70
2023/10/22 07:26:57;;;;;;;;;;;;;;;21.59;100.00;99835.44;4977451;28;1330;-71
2023/10/22 07:29:23;;;;;;;;;;;;;;;22.09;100.00;99834.13;4994640;28;918;-71
2023/10/22 07:31:51;;;;;;;;;;;;;;;22.33;100.00;99831.28;4994912;28;844;-72
2023/10/22 07:34:18;;;;;;;;;;;;;;;22.47;100.00;99829.75;4994675;28;1903;-73
2023/10/22 07:36:44;;;;;;;;;;;;;;;22.78;100.00;99846.19;4994795;28;815;-72
2023/10/22 07:39:12;;;;;;;;;;;;;;;23.31;100.00;99836.81;4977257;28;865;-74
2023/10/22 07:41:39;;;;;;;;;;;;;;;23.79;100.00;99836.47;4977108;28;1803;-70
2023/10/22 07:44:05;;;;;;;;;;;;;;;24.14;100.00;99818.66;4994654;28;890;-73
2023/10/22 07:46:31;;;;;;;;;;;;;;;24.25;100.00;99832.13;4993559;28;847;-73
2023/10/22 07:48:58;;;;;;;;;;;;;;;24.34;100.00;99828.38;4977303;28;1177;-72
2023/10/22 07:51:27;;;;;;;;;;;;;;;24.84;100.00;99825.28;4994598;28;799;-71
2023/10/22 07:53:52;;;;;;;;;;;;;;;25.05;100.00;99803.34;4994615;28;1948;-74
2023/10/22 07:56:19;;;;;;;;;;;;;;;25.33;100.00;99819.72;4994720;28;804;-71
2023/10/22 07:58:46;;;;;;;;;;;;;;;25.36;100.00;99818.72;4994666;28;1226;-70
2023/10/22 08:01:12;;;;;;;;;;;;;;;25.45;100.00;99808.00;4994629;28;854;-74
2023/10/22 08:03:39;;;;;;;;;;;;;;;25.62;100.00;99810.13;4994956;28;831;-71
2023/10/22 08:06:05;;;;;;;;;;;;;;;25.71;100.00;99809.91;4994547;28;834;-73
2023/10/22 08:08:32;;;;;;;;;;;;;;;25.69;100.00;99815.31;4994288;28;858;-71
2023/10/22 08:10:59;;;;;;;;;;;;;;;25.80;100.00;99811.75;4994248;28;1044;-74
2023/10/22 08:13:26;;;;;;;;;;;;;;;25.61;100.00;99808.59;4994308;28;1960;-71
2023/10/22 08:15:53;;;;;;;;;;;;;;;25.14;100.00;99814.44;4994071;28;811;-75
2023/10/22 08:18:20;;;;;;;;;;;;;;;24.84;100.00;99811.91;4994031;28;853;-75
2023/10/22 08:20:52;;;;;;;;;;;;;;;24.17;100.00;99814.84;4976714;28;1339;-74
2023/10/22 08:23:18;;;;;;;;;;;;;;;23.74;100.00;99797.63;4993235;28;1431;-74
2023/10/22 08:25:52;;;;;;;;;;;;;;;23.73;100.00;99798.16;4993858;28;819;-74
2023/10/22 08:28:21;;;;;;;;;;;;;;;23.80;100.00;99795.69;4993741;28;883;-74
2023/10/22 08:30:49;;;;;;;;;;;;;;;23.61;100.00;99783.88;4993844;28;905;-74
2023/10/22 08:33:16;;;;;;;;;;;;;;;23.49;100.00;99792.69;4976264;28;1899;-73
2023/10/22 08:35:43;;;;;;;;;;;;;;;23.39;100.00;99790.00;4993844;28;816;-72
2023/10/22 08:38:10;;;;;;;;;;;;;;;23.40;100.00;99793.59;4993663;28;847;-74
2023/10/22 08:40:38;;;;;;;;;;;;;;;23.34;100.00;99789.91;4993552;28;890;-73
2023/10/22 08:43:14;;;;;;;;;;;;;;;23.34;100.00;99787.91;4993810;28;877;-72
2023/10/22 08:45:41;;;;;;;;;;;;;;;23.64;100.00;99782.09;4993797;28;835;-70
2023/10/22 08:48:08;;;;;;;;;;;;;;;23.92;100.00;99782.50;4993780;28;807;-74
2023/10/22 09:21:44;;;;;;;;;;;;;;;25.68;79.82;99791.88;5605109;23;1775;-74
2023/10/22 09:24:11;;;;;;;;;;;;;;;25.43;81.13;99793.59;5012738;28;853;-73
2023/10/22 09:26:42;;;;;;;;;;;;;;;25.26;81.30;99796.31;5012717;28;901;-69
2023/10/22 09:29:11;;;;;;;;;;;;;;;25.29;81.76;99786.03;5012484;28;1217;-73
2023/10/22 09:31:38;;;;;;;;;;;;;;;25.66;80.90;99771.03;5012655;28;814;-74
2023/10/22 09:34:03;;;;;;;;;;;;;;;25.92;80.32;99775.78;5012583;28;1911;-71
2023/10/22 09:36:30;;;;;;;;;;;;;;;25.95;79.92;99769.13;5012900;28;859;-73
2023/10/22 09:38:57;;;;;;;;;;;;;;;25.44;80.84;99757.56;5012603;28;1182;-73
2023/10/22 09:41:29;;;;;;;;;;;;;;;24.86;83.00;99758.47;5012992;28;822;-74
2023/10/22 09:43:57;;;;;;;;;;;;;;;24.81;84.25;99761.25;5012636;28;877;-73
2023/10/22 09:46:33;;;;;;;;;;;;;;;24.78;84.19;99759.44;5012404;28;901;-73
2023/10/22 09:49:01;;;;;;;;;;;;;;;24.76;84.65;99754.28;5012469;28;971;-72
2023/10/22 09:51:29;;;;;;;;;;;;;;;25.30;83.73;99761.34;5012090;28;885;-72
2023/10/22 09:53:56;;;;;;;;;;;;;;;26.00;82.20;99749.28;5012208;28;1941;-70
2023/10/22 09:56:23;;;;;;;;;;;;;;;26.11;80.64;99740.03;5012496;28;830;-67
2023/10/22 09:58:56;;;;;;;;;;;;;;;25.73;81.66;99747.13;5012210;28;869;-66
2023/10/22 10:01:24;;;;;;;;;;;;;;;25.43;82.66;99730.53;5012655;28;795;-74
2023/10/22 10:03:53;;;;;;;;;;;;;;;25.73;82.36;99728.09;5012016;28;842;-72
2023/10/22 10:06:21;;;;;;;;;;;;;;;25.99;81.72;99725.13;5012326;28;909;-71
2023/10/22 10:08:48;;;;;;;;;;;;;;;26.39;80.56;99713.81;5012570;28;835;-69
2023/10/22 10:11:17;;;;;;;;;;;;;;;26.91;78.98;99701.16;5016292;28;827;-72
2023/10/22 10:13:44;;;;;;;;;;;;;;;27.48;76.97;99691.19;5015818;28;1878;-70
2023/10/22 10:16:10;;;;;;;;;;;;;;;27.73;75.97;99692.09;5015839;28;882;-71
2023/10/22 10:18:55;;;;;;;;;;;;;;;27.86;75.36;99694.38;5015848;28;827;-70
2023/10/22 10:21:44;;;;;;;;;;;;;;;27.66;74.80;99686.97;5015701;28;1217;-73
2023/10/22 10:24:17;;;;;;;;;;;;;;;27.40;75.17;99682.47;5015692;28;890;-73
2023/10/22 10:26:43;;;;;;;;;;;;;;;27.25;75.50;99677.13;5015695;28;822;-69
2023/10/22 10:29:13;;;;;;;;;;;;;;;27.04;75.92;99687.97;5015550;28;897;-69
2023/10/22 10:31:40;;;;;;;;;;;;;;;26.99;76.34;99677.44;5015856;28;842;-72
2023/10/22 10:34:07;;;;;;;;;;;;;;;26.95;76.92;99674.09;5015500;28;1973;-69
2023/10/22 10:36:33;;;;;;;;;;;;;;;27.55;75.42;99670.03;5015344;28;1068;-66
2023/10/22 10:39:18;;;;;;;;;;;;;;;27.85;74.80;99670.09;5015421;28;831;-67
2023/10/22 10:41:51;;;;;;;;;;;;;;;28.17;73.99;99672.47;5015371;28;815;-67
2023/10/22 10:44:19;;;;;;;;;;;;;;;27.88;73.66;99674.75;5015314;28;859;-70
2023/10/22 10:46:45;;;;;;;;;;;;;;;27.59;74.05;99670.50;4997609;28;1292;-72
2023/10/22 10:49:12;;;;;;;;;;;;;;;27.29;75.81;99677.63;5015209;28;883;-71
2023/10/22 10:52:00;;;;;;;;;;;;;;;27.45;75.28;99673.16;5015377;28;882;-74
2023/10/22 10:54:27;;;;;;;;;;;;;;;27.16;76.41;99683.06;4997848;28;1882;-73
2023/10/22 10:57:00;;;;;;;;;;;;;;;26.54;78.10;99673.88;5015354;28;835;-74
2023/10/22 10:59:34;;;;;;;;;;;;;;;26.30;80.05;99665.91;5015507;28;1204;-69
2023/10/22 11:02:10;;;;;;;;;;;;;;;26.86;78.88;99666.66;5015258;28;866;-73
2023/10/22 11:04:44;;;;;;;;;;;;;;;27.38;77.32;99665.19;5015077;28;850;-73
2023/10/22 11:07:11;;;;;;;;;;;;;;;27.49;76.64;99648.09;5015307;28;814;-74
2023/10/22 11:09:38;;;;;;;;;;;;;;;27.29;76.89;99654.16;5015205;28;815;-73
2023/10/22 11:12:06;;;;;;;;;;;;;;;27.28;77.28;99659.03;5015491;28;850;-72
2023/10/22 11:14:37;;;;;;;;;;;;;;;27.62;76.47;99663.78;5014968;28;1940;-74
2023/10/22 11:17:04;;;;;;;;;;;;;;;28.31;74.72;99665.63;4997279;28;1362;-73
2023/10/22 11:19:31;;;;;;;;;;;;;;;28.87;73.41;99661.53;5014577;28;841;-69
2023/10/22 11:21:58;;;;;;;;;;;;;;;29.43;71.13;99640.16;5014614;28;1144;-72
2023/10/22 11:24:32;;;;;;;;;;;;;;;29.38;69.39;99638.16;5014631;28;840;-72
2023/10/22 11:27:02;;;;;;;;;;;;;;;29.06;70.12;99631.03;5014573;28;882;-71
2023/10/22 11:29:29;;;;;;;;;;;;;;;28.96;70.14;99627.00;5014547;28;858;-76
2023/10/22 11:31:56;;;;;;;;;;;;;;;28.97;70.24;99624.94;5014676;28;823;-70
2023/10/22 11:34:23;;;;;;;;;;;;;;;28.98;70.26;99629.31;5014518;28;1934;-71
2023/10/22 11:37:02;;;;;;;;;;;;;;;29.14;69.62;99630.44;4996749;28;1367;-71
2023/10/22 11:39:34;;;;;;;;;;;;;;;29.31;64.01;99623.22;5014667;28;830;-74
2023/10/22 11:42:03;;;;;;;;;;;;;;;29.41;63.53;99617.91;5014306;28;897;-69
2023/10/22 11:44:34;;;;;;;;;;;;;;;29.51;62.90;99621.16;5014511;28;854;-70
2023/10/22 11:47:26;;;;;;;;;;;;;;;29.62;62.57;99608.84;4996594;28;891;-73
2023/10/22 11:50:02;;;;;;;;;;;;;;;29.31;62.79;99613.91;5003569;28;1031;-73
2023/10/22 11:52:36;;;;;;;;;;;;;;;29.25;63.13;99619.69;5014148;28;834;-73
2023/10/22 11:55:11;;;;;;;;;;;;;;;29.38;63.05;99616.16;5014167;28;1882;-74
2023/10/22 11:57:39;;;;;;;;;;;;;;;29.42;59.06;99602.38;5014065;28;795;-73
2023/10/22 12:00:06;;;;;;;;;;;;;;;29.78;58.67;99598.50;5014008;28;857;-74
2023/10/22 12:02:33;;;;;;;;;;;;;;;29.79;57.97;99600.81;5013983;28;866;-76
2023/10/22 12:05:00;;;;;;;;;;;;;;;29.77;57.99;99594.13;5013924;28;1938;-74
2023/10/22 12:07:26;;;;;;;;;;;;;;;29.80;57.84;99599.50;5013870;28;823;-72
2023/10/22 12:09:52;;;;;;;;;;;;;;;29.81;57.62;99594.56;5013913;28;909;-75
2023/10/22 12:12:24;;;;;;;;;;;;;;;29.59;57.21;99601.34;5013715;28;858;-71
2023/10/22 12:14:51;;;;;;;;;;;;;;;29.63;57.22;99596.88;5014024;28;823;-71
2023/10/22 12:17:18;;;;;;;;;;;;;;;29.57;56.98;99596.19;5013580;28;1085;-72
2023/10/22 12:19:44;;;;;;;;;;;;;;;29.58;56.58;99589.22;5013540;28;1041;-73
2023/10/22 12:22:11;;;;;;;;;;;;;;;29.73;55.48;99582.28;5013429;28;1211;-75
2023/10/22 12:24:38;;;;;;;;;;;;;;;29.50;56.26;99588.28;4995039;28;1942;-73
2023/10/22 12:27:05;;;;;;;;;;;;;;;29.62;55.76;99583.97;5013714;28;862;-72
2023/10/22 12:29:31;;;;;;;;;;;;;;;29.98;54.74;99580.84;5013443;28;877;-71
2023/10/22 12:31:59;;;;;;;;;;;;;;;30.24;54.01;99580.13;4995169;28;1193;-71
2023/10/22 12:34:27;;;;;;;;;;;;;;;30.59;52.41;99574.59;5013295;28;862;-72
2023/10/22 12:36:54;;;;;;;;;;;;;;;30.74;50.64;99578.41;5013198;28;858;-73
2023/10/22 12:39:21;;;;;;;;;;;;;;;30.83;48.43;99574.38;5013270;28;851;-72
2023/10/22 12:41:47;;;;;;;;;;;;;;;30.44;43.38;99575.88;5013556;28;775;-73
2023/10/22 12:44:14;;;;;;;;;;;;;;;29.92;42.45;99578.06;5013105;28;1952;-73
2023/10/22 12:46:41;;;;;;;;;;;;;;;29.83;42.71;99574.84;5013065;28;924;-71
2023/10/22 12:49:07;;;;;;;;;;;;;;;29.74;42.85;99569.56;5012907;28;815;-71
2023/10/22 12:51:34;;;;;;;;;;;;;;;29.51;43.25;99569.91;5013144;28;834;-72
2023/10/22 12:54:01;;;;;;;;;;;;;;;29.32;43.86;99569.94;5012955;28;946;-73
2023/10/22 12:56:28;;;;;;;;;;;;;;;29.04;44.50;99573.09;5013020;28;917;-71
2023/10/22 12:58:56;;;;;;;;;;;;;;;28.80;44.49;99569.00;5012791;28;850;-71
2023/10/22 13:01:22;;;;;;;;;;;;;;;28.62;44.93;99564.84;5012884;28;815;-71
2023/10/22 13:03:49;;;;;;;;;;;;;;;28.46;43.60;99563.69;5012844;28;1906;-72
2023/10/22 13:09:03;;;;;;;;;;;;;;;28.21;43.68;99571.44;4996299;28;1433;-70
2023/10/22 13:11:31;;;;;;;;;;;;;;;28.32;43.27;99569.81;5012621;28;901;-73
2023/10/22 13:13:58;;;;;;;;;;;;;;;28.44;43.41;99574.03;5012659;28;866;-69
2023/10/22 13:16:24;;;;;;;;;;;;;;;28.53;43.61;99576.56;5012590;28;861;-71
2023/10/22 13:18:51;;;;;;;;;;;;;;;28.36;43.66;99573.88;5012545;28;854;-70
2023/10/22 13:21:18;;;;;;;;;;;;;;;28.15;44.13;99550.84;5012543;28;1255;-69
2023/10/22 13:23:44;;;;;;;;;;;;;;;27.98;44.50;99564.44;5012509;28;1910;-72
2023/10/22 13:26:11;;;;;;;;;;;;;;;27.76;45.22;99553.97;5012391;28;878;-71
2023/10/22 13:28:38;;;;;;;;;;;;;;;27.62;45.50;99553.06;5012267;28;833;-71
2023/10/22 13:31:04;;;;;;;;;;;;;;;27.48;45.81;99549.28;5012425;28;830;-70
2023/10/22 13:33:31;;;;;;;;;;;;;;;27.34;46.20;99554.03;5012342;28;857;-69